sensor_id;sensor_type;location;lat;lon;timestamp;P1;durP1;ratioP1;P2;durP2;ratioP2
56810;SDS011;42691;47.234;27.494;2022-07-25T00:00:54;16.20;;;9.50;;
56810;SDS011;42691;47.234;27.494;2022-07-25T00:03:20;12.40;;;7.20;;
56810;SDS011;42691;47.234;27.494;2022-07-25T00:05:45;8.93;;;6.82;;
56810;SDS011;42691;47.234;27.494;2022-07-25T00:08:11;10.27;;;7.25;;
56810;SDS011;42691;47.234;27.494;2022-07-25T00:10:36;8.85;;;7.43;;
56810;SDS011;42691;47.234;27.494;2022-07-25T00:13:02;9.90;;;6.13;;
56810;SDS011;42691;47.234;27.494;2022-07-25T00:15:28;11.25;;;6.53;;
56810;SDS011;42691;47.234;27.494;2022-07-25T00:17:53;9.70;;;6.00;;
56810;SDS011;42691;47.234;27.494;2022-07-25T00:20:19;13.15;;;8.73;;
56810;SDS011;42691;47.234;27.494;2022-07-25T00:22:44;12.43;;;7.25;;
56810;SDS011;42691;47.234;27.494;2022-07-25T00:25:10;9.57;;;5.35;;
56810;SDS011;42691;47.234;27.494;2022-07-25T00:27:36;10.48;;;6.57;;
56810;SDS011;42691;47.234;27.494;2022-07-25T00:30:02;7.05;;;5.35;;
56810;SDS011;42691;47.234;27.494;2022-07-25T00:32:28;7.43;;;5.05;;
56810;SDS011;42691;47.234;27.494;2022-07-25T00:34:53;11.45;;;6.18;;
56810;SDS011;42691;47.234;27.494;2022-07-25T00:37:19;6.95;;;4.85;;
56810;SDS011;42691;47.234;27.494;2022-07-25T00:39:44;8.70;;;5.05;;
56810;SDS011;42691;47.234;27.494;2022-07-25T00:42:11;13.13;;;5.07;;
56810;SDS011;42691;47.234;27.494;2022-07-25T00:44:36;7.25;;;4.53;;
56810;SDS011;42691;47.234;27.494;2022-07-25T00:47:02;9.15;;;5.57;;
56810;SDS011;42691;47.234;27.494;2022-07-25T00:49:28;9.23;;;6.70;;
56810;SDS011;42691;47.234;27.494;2022-07-25T00:51:54;9.68;;;4.65;;
56810;SDS011;42691;47.234;27.494;2022-07-25T00:54:19;7.85;;;5.38;;
56810;SDS011;42691;47.234;27.494;2022-07-25T00:56:46;9.60;;;5.70;;
56810;SDS011;42691;47.234;27.494;2022-07-25T00:59:12;35.83;;;7.38;;
56810;SDS011;42691;47.234;27.494;2022-07-25T01:01:38;8.07;;;5.32;;
56810;SDS011;42691;47.234;27.494;2022-07-25T01:04:04;8.68;;;5.50;;
56810;SDS011;42691;47.234;27.494;2022-07-25T01:06:30;7.40;;;5.00;;
56810;SDS011;42691;47.234;27.494;2022-07-25T01:08:56;7.03;;;4.28;;
56810;SDS011;42691;47.234;27.494;2022-07-25T01:11:22;8.00;;;5.32;;
56810;SDS011;42691;47.234;27.494;2022-07-25T01:13:49;7.45;;;4.72;;
56810;SDS011;42691;47.234;27.494;2022-07-25T01:16:14;9.40;;;5.45;;
56810;SDS011;42691;47.234;27.494;2022-07-25T01:18:40;7.00;;;5.53;;
56810;SDS011;42691;47.234;27.494;2022-07-25T01:21:05;7.75;;;4.95;;
56810;SDS011;42691;47.234;27.494;2022-07-25T01:23:31;10.15;;;5.28;;
56810;SDS011;42691;47.234;27.494;2022-07-25T01:25:57;6.82;;;4.25;;
56810;SDS011;42691;47.234;27.494;2022-07-25T01:28:22;4.28;;;3.28;;
56810;SDS011;42691;47.234;27.494;2022-07-25T01:30:48;7.53;;;4.80;;
56810;SDS011;42691;47.234;27.494;2022-07-25T01:33:14;5.95;;;4.28;;
56810;SDS011;42691;47.234;27.494;2022-07-25T01:35:41;9.32;;;4.32;;
56810;SDS011;42691;47.234;27.494;2022-07-25T01:38:07;8.73;;;5.07;;
56810;SDS011;42691;47.234;27.494;2022-07-25T01:40:32;7.10;;;4.30;;
56810;SDS011;42691;47.234;27.494;2022-07-25T01:42:58;7.75;;;4.43;;
56810;SDS011;42691;47.234;27.494;2022-07-25T01:45:23;7.60;;;5.13;;
56810;SDS011;42691;47.234;27.494;2022-07-25T01:47:48;10.02;;;5.22;;
56810;SDS011;42691;47.234;27.494;2022-07-25T01:50:14;7.35;;;4.70;;
56810;SDS011;42691;47.234;27.494;2022-07-25T01:52:39;9.10;;;4.45;;
56810;SDS011;42691;47.234;27.494;2022-07-25T01:55:05;8.25;;;4.10;;
56810;SDS011;42691;47.234;27.494;2022-07-25T01:57:31;7.20;;;5.78;;
56810;SDS011;42691;47.234;27.494;2022-07-25T01:59:57;10.13;;;7.22;;
56810;SDS011;42691;47.234;27.494;2022-07-25T02:02:23;9.77;;;4.82;;
56810;SDS011;42691;47.234;27.494;2022-07-25T02:04:49;9.38;;;5.93;;
56810;SDS011;42691;47.234;27.494;2022-07-25T02:07:15;8.43;;;5.20;;
56810;SDS011;42691;47.234;27.494;2022-07-25T02:09:40;9.75;;;5.10;;
56810;SDS011;42691;47.234;27.494;2022-07-25T02:12:06;8.07;;;5.65;;
56810;SDS011;42691;47.234;27.494;2022-07-25T02:14:32;6.70;;;4.35;;
56810;SDS011;42691;47.234;27.494;2022-07-25T02:16:58;10.38;;;4.90;;
56810;SDS011;42691;47.234;27.494;2022-07-25T02:19:23;6.38;;;3.88;;
56810;SDS011;42691;47.234;27.494;2022-07-25T02:21:49;8.20;;;6.38;;
56810;SDS011;42691;47.234;27.494;2022-07-25T02:24:14;12.93;;;5.05;;
56810;SDS011;42691;47.234;27.494;2022-07-25T02:26:40;11.52;;;5.22;;
56810;SDS011;42691;47.234;27.494;2022-07-25T02:29:06;8.20;;;5.03;;
56810;SDS011;42691;47.234;27.494;2022-07-25T02:31:31;5.95;;;3.42;;
56810;SDS011;42691;47.234;27.494;2022-07-25T02:33:57;8.05;;;5.18;;
56810;SDS011;42691;47.234;27.494;2022-07-25T02:36:22;8.02;;;3.55;;
56810;SDS011;42691;47.234;27.494;2022-07-25T02:38:48;4.72;;;3.97;;
56810;SDS011;42691;47.234;27.494;2022-07-25T02:41:13;10.65;;;5.05;;
56810;SDS011;42691;47.234;27.494;2022-07-25T02:43:38;5.53;;;3.42;;
56810;SDS011;42691;47.234;27.494;2022-07-25T02:46:04;10.55;;;4.07;;
56810;SDS011;42691;47.234;27.494;2022-07-25T02:48:30;8.30;;;4.63;;
56810;SDS011;42691;47.234;27.494;2022-07-25T02:50:55;6.03;;;4.40;;
56810;SDS011;42691;47.234;27.494;2022-07-25T02:53:20;8.00;;;3.92;;
56810;SDS011;42691;47.234;27.494;2022-07-25T02:55:46;7.65;;;3.60;;
56810;SDS011;42691;47.234;27.494;2022-07-25T02:58:11;6.93;;;4.88;;
56810;SDS011;42691;47.234;27.494;2022-07-25T03:00:37;6.85;;;4.45;;
56810;SDS011;42691;47.234;27.494;2022-07-25T03:03:02;7.20;;;4.00;;
56810;SDS011;42691;47.234;27.494;2022-07-25T03:05:28;6.50;;;4.05;;
56810;SDS011;42691;47.234;27.494;2022-07-25T03:07:53;6.47;;;4.50;;
56810;SDS011;42691;47.234;27.494;2022-07-25T03:10:19;6.50;;;4.50;;
56810;SDS011;42691;47.234;27.494;2022-07-25T03:12:44;7.38;;;4.57;;
56810;SDS011;42691;47.234;27.494;2022-07-25T03:15:10;9.30;;;5.47;;
56810;SDS011;42691;47.234;27.494;2022-07-25T03:17:37;8.88;;;4.85;;
56810;SDS011;42691;47.234;27.494;2022-07-25T03:20:04;6.85;;;3.70;;
56810;SDS011;42691;47.234;27.494;2022-07-25T03:22:30;4.97;;;3.40;;
56810;SDS011;42691;47.234;27.494;2022-07-25T03:24:56;8.45;;;4.53;;
56810;SDS011;42691;47.234;27.494;2022-07-25T03:27:22;7.55;;;4.50;;
56810;SDS011;42691;47.234;27.494;2022-07-25T03:29:48;10.20;;;4.90;;
56810;SDS011;42691;47.234;27.494;2022-07-25T03:32:13;8.25;;;4.90;;
56810;SDS011;42691;47.234;27.494;2022-07-25T03:34:39;6.95;;;4.03;;
56810;SDS011;42691;47.234;27.494;2022-07-25T03:37:04;7.45;;;4.70;;
56810;SDS011;42691;47.234;27.494;2022-07-25T03:39:30;36.60;;;5.72;;
56810;SDS011;42691;47.234;27.494;2022-07-25T03:41:56;8.52;;;4.63;;
56810;SDS011;42691;47.234;27.494;2022-07-25T03:44:22;6.95;;;4.32;;
56810;SDS011;42691;47.234;27.494;2022-07-25T03:46:48;6.22;;;4.82;;
56810;SDS011;42691;47.234;27.494;2022-07-25T03:49:14;5.75;;;4.28;;
56810;SDS011;42691;47.234;27.494;2022-07-25T03:51:40;7.35;;;4.72;;
56810;SDS011;42691;47.234;27.494;2022-07-25T03:54:06;9.10;;;5.55;;
56810;SDS011;42691;47.234;27.494;2022-07-25T03:56:39;8.52;;;4.38;;
56810;SDS011;42691;47.234;27.494;2022-07-25T03:59:09;6.60;;;3.67;;
56810;SDS011;42691;47.234;27.494;2022-07-25T04:04:05;8.30;;;4.93;;
56810;SDS011;42691;47.234;27.494;2022-07-25T04:06:30;5.28;;;4.10;;
56810;SDS011;42691;47.234;27.494;2022-07-25T04:08:56;9.02;;;4.53;;
56810;SDS011;42691;47.234;27.494;2022-07-25T04:11:22;8.18;;;3.92;;
56810;SDS011;42691;47.234;27.494;2022-07-25T04:13:48;6.53;;;4.45;;
56810;SDS011;42691;47.234;27.494;2022-07-25T04:16:14;6.97;;;4.63;;
56810;SDS011;42691;47.234;27.494;2022-07-25T04:18:40;7.03;;;4.18;;
56810;SDS011;42691;47.234;27.494;2022-07-25T04:21:05;7.18;;;3.97;;
56810;SDS011;42691;47.234;27.494;2022-07-25T04:23:31;6.78;;;4.15;;
56810;SDS011;42691;47.234;27.494;2022-07-25T04:25:57;8.23;;;4.28;;
56810;SDS011;42691;47.234;27.494;2022-07-25T04:28:23;7.80;;;4.40;;
56810;SDS011;42691;47.234;27.494;2022-07-25T04:30:49;5.78;;;3.28;;
56810;SDS011;42691;47.234;27.494;2022-07-25T04:33:15;6.68;;;3.95;;
56810;SDS011;42691;47.234;27.494;2022-07-25T04:35:41;7.50;;;3.67;;
56810;SDS011;42691;47.234;27.494;2022-07-25T04:38:06;6.90;;;3.40;;
56810;SDS011;42691;47.234;27.494;2022-07-25T04:40:32;11.40;;;5.10;;
56810;SDS011;42691;47.234;27.494;2022-07-25T04:42:57;8.00;;;3.88;;
56810;SDS011;42691;47.234;27.494;2022-07-25T04:45:23;5.78;;;2.67;;
56810;SDS011;42691;47.234;27.494;2022-07-25T04:47:48;5.75;;;3.50;;
56810;SDS011;42691;47.234;27.494;2022-07-25T04:50:14;6.95;;;3.78;;
56810;SDS011;42691;47.234;27.494;2022-07-25T04:52:40;7.10;;;3.38;;
56810;SDS011;42691;47.234;27.494;2022-07-25T04:55:06;7.93;;;3.65;;
56810;SDS011;42691;47.234;27.494;2022-07-25T04:57:32;4.57;;;3.35;;
56810;SDS011;42691;47.234;27.494;2022-07-25T04:59:58;4.55;;;2.63;;
56810;SDS011;42691;47.234;27.494;2022-07-25T05:02:24;5.75;;;3.33;;
56810;SDS011;42691;47.234;27.494;2022-07-25T05:04:50;6.85;;;3.50;;
56810;SDS011;42691;47.234;27.494;2022-07-25T05:07:16;5.50;;;3.35;;
56810;SDS011;42691;47.234;27.494;2022-07-25T05:09:41;5.68;;;3.03;;
56810;SDS011;42691;47.234;27.494;2022-07-25T05:12:07;4.63;;;3.33;;
56810;SDS011;42691;47.234;27.494;2022-07-25T05:14:33;4.03;;;2.50;;
56810;SDS011;42691;47.234;27.494;2022-07-25T05:16:59;5.80;;;3.65;;
56810;SDS011;42691;47.234;27.494;2022-07-25T05:19:24;4.60;;;2.80;;
56810;SDS011;42691;47.234;27.494;2022-07-25T05:21:50;3.40;;;2.90;;
56810;SDS011;42691;47.234;27.494;2022-07-25T05:24:16;2.65;;;2.28;;
56810;SDS011;42691;47.234;27.494;2022-07-25T05:26:41;4.32;;;2.53;;
56810;SDS011;42691;47.234;27.494;2022-07-25T05:29:07;3.67;;;2.63;;
56810;SDS011;42691;47.234;27.494;2022-07-25T05:31:32;5.38;;;2.90;;
56810;SDS011;42691;47.234;27.494;2022-07-25T05:33:58;4.43;;;2.97;;
56810;SDS011;42691;47.234;27.494;2022-07-25T05:36:23;5.63;;;2.95;;
56810;SDS011;42691;47.234;27.494;2022-07-25T05:38:49;4.28;;;2.33;;
56810;SDS011;42691;47.234;27.494;2022-07-25T05:41:14;6.05;;;2.42;;
56810;SDS011;42691;47.234;27.494;2022-07-25T05:43:40;6.72;;;2.85;;
56810;SDS011;42691;47.234;27.494;2022-07-25T05:46:10;6.75;;;2.38;;
56810;SDS011;42691;47.234;27.494;2022-07-25T05:48:35;6.18;;;2.78;;
56810;SDS011;42691;47.234;27.494;2022-07-25T05:51:01;5.53;;;2.83;;
56810;SDS011;42691;47.234;27.494;2022-07-25T05:53:26;3.08;;;2.22;;
56810;SDS011;42691;47.234;27.494;2022-07-25T05:55:52;3.47;;;2.33;;
56810;SDS011;42691;47.234;27.494;2022-07-25T05:58:18;4.57;;;3.17;;
56810;SDS011;42691;47.234;27.494;2022-07-25T06:00:43;6.20;;;2.58;;
56810;SDS011;42691;47.234;27.494;2022-07-25T06:03:09;5.70;;;3.28;;
56810;SDS011;42691;47.234;27.494;2022-07-25T06:05:34;3.42;;;2.33;;
56810;SDS011;42691;47.234;27.494;2022-07-25T06:08:00;4.25;;;2.38;;
56810;SDS011;42691;47.234;27.494;2022-07-25T06:10:25;3.50;;;2.03;;
56810;SDS011;42691;47.234;27.494;2022-07-25T06:12:51;9.25;;;3.22;;
56810;SDS011;42691;47.234;27.494;2022-07-25T06:15:16;3.28;;;1.70;;
56810;SDS011;42691;47.234;27.494;2022-07-25T06:17:42;4.38;;;1.67;;
56810;SDS011;42691;47.234;27.494;2022-07-25T06:20:08;4.00;;;1.73;;
56810;SDS011;42691;47.234;27.494;2022-07-25T06:22:33;3.03;;;1.85;;
56810;SDS011;42691;47.234;27.494;2022-07-25T06:25:00;1.23;;;1.13;;
56810;SDS011;42691;47.234;27.494;2022-07-25T06:27:27;2.47;;;1.90;;
56810;SDS011;42691;47.234;27.494;2022-07-25T06:29:52;5.63;;;2.25;;
56810;SDS011;42691;47.234;27.494;2022-07-25T06:32:18;3.25;;;2.03;;
56810;SDS011;42691;47.234;27.494;2022-07-25T06:34:43;6.65;;;2.83;;
56810;SDS011;42691;47.234;27.494;2022-07-25T06:37:08;1.90;;;1.58;;
56810;SDS011;42691;47.234;27.494;2022-07-25T06:39:34;2.45;;;2.05;;
56810;SDS011;42691;47.234;27.494;2022-07-25T06:41:59;8.23;;;2.97;;
56810;SDS011;42691;47.234;27.494;2022-07-25T06:44:27;4.35;;;1.73;;
56810;SDS011;42691;47.234;27.494;2022-07-25T06:46:56;2.28;;;1.60;;
56810;SDS011;42691;47.234;27.494;2022-07-25T06:49:21;4.95;;;1.80;;
56810;SDS011;42691;47.234;27.494;2022-07-25T06:51:47;3.97;;;1.95;;
56810;SDS011;42691;47.234;27.494;2022-07-25T06:54:12;3.63;;;1.90;;
56810;SDS011;42691;47.234;27.494;2022-07-25T06:56:39;2.35;;;1.45;;
56810;SDS011;42691;47.234;27.494;2022-07-25T06:59:05;1.55;;;1.38;;
56810;SDS011;42691;47.234;27.494;2022-07-25T07:01:30;3.35;;;2.03;;
56810;SDS011;42691;47.234;27.494;2022-07-25T07:03:56;1.52;;;1.10;;
56810;SDS011;42691;47.234;27.494;2022-07-25T07:06:21;1.75;;;1.02;;
56810;SDS011;42691;47.234;27.494;2022-07-25T07:08:47;2.05;;;1.70;;
56810;SDS011;42691;47.234;27.494;2022-07-25T07:11:12;3.88;;;1.45;;
56810;SDS011;42691;47.234;27.494;2022-07-25T07:13:39;1.77;;;1.65;;
56810;SDS011;42691;47.234;27.494;2022-07-25T07:16:05;6.10;;;2.22;;
56810;SDS011;42691;47.234;27.494;2022-07-25T07:18:30;2.22;;;1.65;;
56810;SDS011;42691;47.234;27.494;2022-07-25T07:20:56;5.40;;;2.72;;
56810;SDS011;42691;47.234;27.494;2022-07-25T07:23:21;5.55;;;1.77;;
56810;SDS011;42691;47.234;27.494;2022-07-25T07:25:47;3.17;;;1.88;;
56810;SDS011;42691;47.234;27.494;2022-07-25T07:28:13;1.40;;;1.15;;
56810;SDS011;42691;47.234;27.494;2022-07-25T07:30:39;2.08;;;1.05;;
56810;SDS011;42691;47.234;27.494;2022-07-25T07:33:05;1.85;;;1.45;;
56810;SDS011;42691;47.234;27.494;2022-07-25T07:35:30;2.22;;;1.60;;
56810;SDS011;42691;47.234;27.494;2022-07-25T07:37:56;2.90;;;1.85;;
56810;SDS011;42691;47.234;27.494;2022-07-25T07:40:22;3.95;;;1.80;;
56810;SDS011;42691;47.234;27.494;2022-07-25T07:42:49;2.17;;;1.48;;
56810;SDS011;42691;47.234;27.494;2022-07-25T07:45:19;4.63;;;1.85;;
56810;SDS011;42691;47.234;27.494;2022-07-25T07:47:46;1.58;;;1.23;;
56810;SDS011;42691;47.234;27.494;2022-07-25T07:50:13;3.75;;;1.40;;
56810;SDS011;42691;47.234;27.494;2022-07-25T07:52:40;2.67;;;1.80;;
56810;SDS011;42691;47.234;27.494;2022-07-25T07:55:07;3.03;;;2.05;;
56810;SDS011;42691;47.234;27.494;2022-07-25T07:57:52;4.53;;;1.75;;
56810;SDS011;42691;47.234;27.494;2022-07-25T08:00:18;2.17;;;1.25;;
56810;SDS011;42691;47.234;27.494;2022-07-25T08:02:45;2.22;;;1.50;;
56810;SDS011;42691;47.234;27.494;2022-07-25T08:05:23;2.03;;;1.30;;
56810;SDS011;42691;47.234;27.494;2022-07-25T08:07:50;3.35;;;1.92;;
56810;SDS011;42691;47.234;27.494;2022-07-25T08:10:35;4.10;;;1.42;;
56810;SDS011;42691;47.234;27.494;2022-07-25T08:13:10;3.83;;;1.60;;
56810;SDS011;42691;47.234;27.494;2022-07-25T08:15:43;2.38;;;1.15;;
56810;SDS011;42691;47.234;27.494;2022-07-25T08:18:12;2.45;;;1.45;;
56810;SDS011;42691;47.234;27.494;2022-07-25T08:20:38;2.47;;;1.85;;
56810;SDS011;42691;47.234;27.494;2022-07-25T08:23:04;3.15;;;1.55;;
56810;SDS011;42691;47.234;27.494;2022-07-25T08:25:31;4.35;;;1.35;;
56810;SDS011;42691;47.234;27.494;2022-07-25T08:27:57;3.92;;;1.20;;
56810;SDS011;42691;47.234;27.494;2022-07-25T08:30:23;6.85;;;1.60;;
56810;SDS011;42691;47.234;27.494;2022-07-25T08:32:53;6.25;;;1.40;;
56810;SDS011;42691;47.234;27.494;2022-07-25T08:35:24;1.80;;;1.58;;
56810;SDS011;42691;47.234;27.494;2022-07-25T08:37:51;3.83;;;1.83;;
56810;SDS011;42691;47.234;27.494;2022-07-25T08:40:18;2.53;;;1.50;;
56810;SDS011;42691;47.234;27.494;2022-07-25T08:42:45;2.58;;;2.25;;
56810;SDS011;42691;47.234;27.494;2022-07-25T08:45:11;2.05;;;1.40;;
56810;SDS011;42691;47.234;27.494;2022-07-25T08:47:38;1.73;;;1.13;;
56810;SDS011;42691;47.234;27.494;2022-07-25T08:50:06;1.83;;;1.48;;
56810;SDS011;42691;47.234;27.494;2022-07-25T08:52:34;4.43;;;1.55;;
56810;SDS011;42691;47.234;27.494;2022-07-25T08:55:02;1.77;;;0.85;;
56810;SDS011;42691;47.234;27.494;2022-07-25T08:57:29;3.03;;;1.27;;
56810;SDS011;42691;47.234;27.494;2022-07-25T08:59:55;1.52;;;1.30;;
56810;SDS011;42691;47.234;27.494;2022-07-25T09:02:24;2.60;;;1.63;;
56810;SDS011;42691;47.234;27.494;2022-07-25T09:04:54;1.55;;;1.23;;
56810;SDS011;42691;47.234;27.494;2022-07-25T09:07:40;1.35;;;1.02;;
56810;SDS011;42691;47.234;27.494;2022-07-25T09:15:04;3.13;;;1.30;;
56810;SDS011;42691;47.234;27.494;2022-07-25T09:17:33;3.42;;;1.30;;
56810;SDS011;42691;47.234;27.494;2022-07-25T09:19:59;2.42;;;1.85;;
56810;SDS011;42691;47.234;27.494;2022-07-25T09:22:25;3.78;;;1.67;;
56810;SDS011;42691;47.234;27.494;2022-07-25T09:24:51;2.95;;;1.80;;
56810;SDS011;42691;47.234;27.494;2022-07-25T09:27:17;2.60;;;2.00;;
56810;SDS011;42691;47.234;27.494;2022-07-25T09:29:43;5.72;;;1.65;;
56810;SDS011;42691;47.234;27.494;2022-07-25T09:32:13;1.20;;;1.10;;
56810;SDS011;42691;47.234;27.494;2022-07-25T09:34:39;4.80;;;1.40;;
56810;SDS011;42691;47.234;27.494;2022-07-25T09:37:07;7.25;;;2.20;;
56810;SDS011;42691;47.234;27.494;2022-07-25T09:42:13;3.55;;;2.10;;
56810;SDS011;42691;47.234;27.494;2022-07-25T09:44:58;2.22;;;1.45;;
56810;SDS011;42691;47.234;27.494;2022-07-25T09:47:33;1.92;;;1.25;;
56810;SDS011;42691;47.234;27.494;2022-07-25T09:50:00;4.13;;;1.63;;
56810;SDS011;42691;47.234;27.494;2022-07-25T09:52:26;2.55;;;1.63;;
56810;SDS011;42691;47.234;27.494;2022-07-25T09:54:52;3.05;;;2.40;;
56810;SDS011;42691;47.234;27.494;2022-07-25T09:57:19;3.33;;;1.67;;
56810;SDS011;42691;47.234;27.494;2022-07-25T09:59:45;2.63;;;1.45;;
56810;SDS011;42691;47.234;27.494;2022-07-25T10:02:16;8.48;;;1.67;;
56810;SDS011;42691;47.234;27.494;2022-07-25T10:07:13;4.60;;;1.40;;
56810;SDS011;42691;47.234;27.494;2022-07-25T10:09:49;2.47;;;1.48;;
56810;SDS011;42691;47.234;27.494;2022-07-25T10:12:19;7.22;;;2.20;;
56810;SDS011;42691;47.234;27.494;2022-07-25T10:17:37;3.80;;;2.05;;
56810;SDS011;42691;47.234;27.494;2022-07-25T10:20:05;1.27;;;1.10;;
56810;SDS011;42691;47.234;27.494;2022-07-25T10:22:35;4.72;;;1.88;;
56810;SDS011;42691;47.234;27.494;2022-07-25T10:25:16;2.42;;;1.40;;
56810;SDS011;42691;47.234;27.494;2022-07-25T10:30:17;2.33;;;1.77;;
56810;SDS011;42691;47.234;27.494;2022-07-25T10:36:04;2.03;;;1.50;;
56810;SDS011;42691;47.234;27.494;2022-07-25T10:38:31;2.75;;;1.52;;
56810;SDS011;42691;47.234;27.494;2022-07-25T10:40:59;2.10;;;1.38;;
56810;SDS011;42691;47.234;27.494;2022-07-25T10:43:26;2.05;;;1.58;;
56810;SDS011;42691;47.234;27.494;2022-07-25T10:45:54;1.40;;;0.95;;
56810;SDS011;42691;47.234;27.494;2022-07-25T10:50:58;2.78;;;1.88;;
56810;SDS011;42691;47.234;27.494;2022-07-25T11:01:19;1.30;;;1.20;;
56810;SDS011;42691;47.234;27.494;2022-07-25T11:03:46;3.17;;;1.73;;
56810;SDS011;42691;47.234;27.494;2022-07-25T11:06:12;3.42;;;1.20;;
56810;SDS011;42691;47.234;27.494;2022-07-25T11:08:39;3.55;;;2.58;;
56810;SDS011;42691;47.234;27.494;2022-07-25T11:11:05;4.32;;;1.73;;
56810;SDS011;42691;47.234;27.494;2022-07-25T11:13:38;4.35;;;1.40;;
56810;SDS011;42691;47.234;27.494;2022-07-25T11:16:05;3.28;;;2.10;;
56810;SDS011;42691;47.234;27.494;2022-07-25T11:21:01;4.15;;;1.52;;
56810;SDS011;42691;47.234;27.494;2022-07-25T11:23:28;4.72;;;2.10;;
56810;SDS011;42691;47.234;27.494;2022-07-25T11:26:07;2.95;;;1.67;;
56810;SDS011;42691;47.234;27.494;2022-07-25T11:31:07;3.83;;;1.67;;
56810;SDS011;42691;47.234;27.494;2022-07-25T11:33:33;4.93;;;1.88;;
56810;SDS011;42691;47.234;27.494;2022-07-25T11:35:59;4.15;;;2.40;;
56810;SDS011;42691;47.234;27.494;2022-07-25T11:38:25;3.25;;;1.50;;
56810;SDS011;42691;47.234;27.494;2022-07-25T11:40:51;2.88;;;1.58;;
56810;SDS011;42691;47.234;27.494;2022-07-25T11:43:20;2.40;;;1.75;;
56810;SDS011;42691;47.234;27.494;2022-07-25T11:48:28;3.53;;;1.55;;
56810;SDS011;42691;47.234;27.494;2022-07-25T11:51:07;4.95;;;2.50;;
56810;SDS011;42691;47.234;27.494;2022-07-25T11:53:43;3.17;;;1.52;;
56810;SDS011;42691;47.234;27.494;2022-07-25T11:56:17;2.75;;;2.03;;
56810;SDS011;42691;47.234;27.494;2022-07-25T11:58:57;2.33;;;1.85;;
56810;SDS011;42691;47.234;27.494;2022-07-25T12:01:24;4.07;;;1.58;;
56810;SDS011;42691;47.234;27.494;2022-07-25T12:04:06;7.35;;;2.03;;
56810;SDS011;42691;47.234;27.494;2022-07-25T12:06:34;2.72;;;1.30;;
56810;SDS011;42691;47.234;27.494;2022-07-25T12:09:08;1.88;;;1.63;;
56810;SDS011;42691;47.234;27.494;2022-07-25T12:11:35;5.22;;;2.47;;
56810;SDS011;42691;47.234;27.494;2022-07-25T12:14:01;4.32;;;2.17;;
56810;SDS011;42691;47.234;27.494;2022-07-25T12:16:28;3.25;;;1.67;;
56810;SDS011;42691;47.234;27.494;2022-07-25T12:18:54;2.00;;;1.33;;
56810;SDS011;42691;47.234;27.494;2022-07-25T12:21:20;4.22;;;2.30;;
56810;SDS011;42691;47.234;27.494;2022-07-25T12:23:45;1.80;;;1.35;;
56810;SDS011;42691;47.234;27.494;2022-07-25T12:26:11;1.73;;;1.40;;
56810;SDS011;42691;47.234;27.494;2022-07-25T12:28:38;2.67;;;1.83;;
56810;SDS011;42691;47.234;27.494;2022-07-25T12:31:04;3.47;;;2.10;;
56810;SDS011;42691;47.234;27.494;2022-07-25T12:33:29;4.13;;;2.17;;
56810;SDS011;42691;47.234;27.494;2022-07-25T12:35:56;3.55;;;2.00;;
56810;SDS011;42691;47.234;27.494;2022-07-25T12:38:22;3.42;;;1.58;;
56810;SDS011;42691;47.234;27.494;2022-07-25T12:40:48;5.32;;;1.42;;
56810;SDS011;42691;47.234;27.494;2022-07-25T12:43:14;2.65;;;1.65;;
56810;SDS011;42691;47.234;27.494;2022-07-25T12:45:40;2.13;;;1.75;;
56810;SDS011;42691;47.234;27.494;2022-07-25T12:48:06;2.78;;;1.65;;
56810;SDS011;42691;47.234;27.494;2022-07-25T12:50:32;3.47;;;1.67;;
56810;SDS011;42691;47.234;27.494;2022-07-25T12:52:58;2.58;;;1.95;;
56810;SDS011;42691;47.234;27.494;2022-07-25T12:55:23;3.55;;;2.33;;
56810;SDS011;42691;47.234;27.494;2022-07-25T12:57:49;4.18;;;1.73;;
56810;SDS011;42691;47.234;27.494;2022-07-25T13:00:15;7.05;;;2.00;;
56810;SDS011;42691;47.234;27.494;2022-07-25T13:02:42;1.77;;;1.67;;
56810;SDS011;42691;47.234;27.494;2022-07-25T13:05:08;2.83;;;1.70;;
56810;SDS011;42691;47.234;27.494;2022-07-25T13:07:34;4.07;;;1.75;;
56810;SDS011;42691;47.234;27.494;2022-07-25T13:10:00;3.92;;;1.75;;
56810;SDS011;42691;47.234;27.494;2022-07-25T13:12:26;3.83;;;1.83;;
56810;SDS011;42691;47.234;27.494;2022-07-25T13:14:51;3.00;;;1.67;;
56810;SDS011;42691;47.234;27.494;2022-07-25T13:17:17;3.75;;;2.20;;
56810;SDS011;42691;47.234;27.494;2022-07-25T13:19:42;2.72;;;1.30;;
56810;SDS011;42691;47.234;27.494;2022-07-25T13:22:08;4.05;;;1.73;;
56810;SDS011;42691;47.234;27.494;2022-07-25T13:24:33;1.88;;;1.73;;
56810;SDS011;42691;47.234;27.494;2022-07-25T13:27:03;2.80;;;1.58;;
56810;SDS011;42691;47.234;27.494;2022-07-25T13:29:29;3.38;;;2.42;;
56810;SDS011;42691;47.234;27.494;2022-07-25T13:31:54;3.53;;;1.85;;
56810;SDS011;42691;47.234;27.494;2022-07-25T13:34:20;9.52;;;1.75;;
56810;SDS011;42691;47.234;27.494;2022-07-25T13:36:45;2.88;;;1.65;;
56810;SDS011;42691;47.234;27.494;2022-07-25T13:39:11;5.32;;;2.10;;
56810;SDS011;42691;47.234;27.494;2022-07-25T13:41:37;2.65;;;1.58;;
56810;SDS011;42691;47.234;27.494;2022-07-25T13:44:03;3.25;;;1.80;;
56810;SDS011;42691;47.234;27.494;2022-07-25T13:46:29;2.45;;;1.35;;
56810;SDS011;42691;47.234;27.494;2022-07-25T13:48:55;5.82;;;2.20;;
56810;SDS011;42691;47.234;27.494;2022-07-25T13:51:21;1.85;;;1.40;;
56810;SDS011;42691;47.234;27.494;2022-07-25T13:53:46;5.10;;;2.42;;
56810;SDS011;42691;47.234;27.494;2022-07-25T13:56:12;4.65;;;1.60;;
56810;SDS011;42691;47.234;27.494;2022-07-25T13:58:38;1.50;;;1.40;;
56810;SDS011;42691;47.234;27.494;2022-07-25T14:01:04;3.80;;;1.45;;
56810;SDS011;42691;47.234;27.494;2022-07-25T14:03:31;2.58;;;1.48;;
56810;SDS011;42691;47.234;27.494;2022-07-25T14:05:57;3.35;;;1.70;;
56810;SDS011;42691;47.234;27.494;2022-07-25T14:08:22;2.35;;;1.90;;
56810;SDS011;42691;47.234;27.494;2022-07-25T14:10:50;4.15;;;1.80;;
56810;SDS011;42691;47.234;27.494;2022-07-25T14:13:16;3.45;;;1.75;;
56810;SDS011;42691;47.234;27.494;2022-07-25T14:15:42;3.80;;;2.17;;
56810;SDS011;42691;47.234;27.494;2022-07-25T14:18:08;2.83;;;1.52;;
56810;SDS011;42691;47.234;27.494;2022-07-25T14:20:34;5.28;;;2.65;;
56810;SDS011;42691;47.234;27.494;2022-07-25T14:22:59;4.82;;;1.85;;
56810;SDS011;42691;47.234;27.494;2022-07-25T14:25:25;3.42;;;1.48;;
56810;SDS011;42691;47.234;27.494;2022-07-25T14:27:50;5.72;;;2.00;;
56810;SDS011;42691;47.234;27.494;2022-07-25T14:30:16;4.03;;;1.58;;
56810;SDS011;42691;47.234;27.494;2022-07-25T14:32:41;4.45;;;1.92;;
56810;SDS011;42691;47.234;27.494;2022-07-25T14:35:07;4.40;;;2.30;;
56810;SDS011;42691;47.234;27.494;2022-07-25T14:37:33;2.28;;;1.67;;
56810;SDS011;42691;47.234;27.494;2022-07-25T14:39:59;2.83;;;1.75;;
56810;SDS011;42691;47.234;27.494;2022-07-25T14:42:26;2.72;;;1.52;;
56810;SDS011;42691;47.234;27.494;2022-07-25T14:44:52;2.38;;;1.23;;
56810;SDS011;42691;47.234;27.494;2022-07-25T14:47:18;4.60;;;1.85;;
56810;SDS011;42691;47.234;27.494;2022-07-25T14:49:44;2.35;;;1.90;;
56810;SDS011;42691;47.234;27.494;2022-07-25T14:52:10;3.05;;;1.75;;
56810;SDS011;42691;47.234;27.494;2022-07-25T14:54:36;3.05;;;1.50;;
56810;SDS011;42691;47.234;27.494;2022-07-25T14:57:02;6.03;;;2.47;;
56810;SDS011;42691;47.234;27.494;2022-07-25T14:59:27;2.10;;;1.63;;
56810;SDS011;42691;47.234;27.494;2022-07-25T15:01:53;3.28;;;1.85;;
56810;SDS011;42691;47.234;27.494;2022-07-25T15:04:18;2.97;;;2.10;;
56810;SDS011;42691;47.234;27.494;2022-07-25T15:06:46;1.65;;;1.42;;
56810;SDS011;42691;47.234;27.494;2022-07-25T15:09:12;6.85;;;2.05;;